Time;durP1;ratioP1;P1;durP2;ratioP2;P2;SDS_P1;SDS_P2;PMS_P1;PMS_P2;Temp;Humidity;BMP_temperature;BMP_pressure;BME280_temperature;BME280_humidity;BME280_pressure;Samples;Min_cycle;Max_cycle;Signal;HPM_P1;HPM_P2
2022/05/15 00:01:59;;;;;;;13.98;4.70;;;;;;;10.19;98.73;102227.16;5016250;28;20033;-79
2022/05/15 00:04:25;;;;;;;12.07;5.10;;;;;;;10.17;99.10;102228.94;5012498;28;20842;-79
2022/05/15 00:06:50;;;;;;;14.38;4.32;;;;;;;10.15;99.71;102228.13;5013336;28;20045;-79
2022/05/15 00:09:16;;;;;;;13.15;4.90;;;;;;;10.12;98.34;102226.41;4998464;28;20033;-80
2022/05/15 00:11:41;;;;;;;11.80;4.10;;;;;;;10.08;98.49;102227.38;5015791;28;20033;-77
2022/05/15 00:14:07;;;;;;;13.43;4.55;;;;;;;10.06;98.81;102226.53;5033515;28;20518;-80
2022/05/15 00:16:33;;;;;;;8.45;3.90;;;;;;;10.03;98.92;102232.75;5030048;28;20037;-80
2022/05/15 00:18:59;;;;;;;9.30;4.07;;;;;;;10.01;99.00;102223.09;5033615;28;20029;-80
2022/05/15 00:21:25;;;;;;;13.27;3.92;;;;;;;9.99;100.00;102217.88;5033174;28;20033;-80
2022/05/15 00:23:50;;;;;;;14.20;4.60;;;;;;;9.98;100.00;102224.03;5033001;28;20040;-78
2022/05/15 00:26:16;;;;;;;11.85;4.22;;;;;;;9.97;100.00;102224.09;5032892;28;20049;-78
2022/05/15 00:28:42;;;;;;;10.85;4.57;;;;;;;9.95;99.39;102223.22;5034721;28;20207;-78
2022/05/15 00:31:08;;;;;;;14.98;3.88;;;;;;;9.96;99.39;102225.84;5031007;28;20032;-78
2022/05/15 00:33:33;;;;;;;11.73;4.28;;;;;;;9.96;100.00;102220.56;5032962;28;20032;-78
2022/05/15 00:35:59;;;;;;;7.40;3.67;;;;;;;9.96;99.98;102230.28;5032904;28;20457;-79
2022/05/15 00:38:25;;;;;;;13.35;4.25;;;;;;;9.95;99.48;102228.53;5033184;28;20135;-79
2022/05/15 00:40:50;;;;;;;14.10;4.18;;;;;;;9.92;100.00;102224.19;5014206;28;20041;-79
2022/05/15 00:43:48;;;;;;;11.75;4.18;;;;;;;9.90;100.00;102224.22;5033301;28;20035;-79
2022/05/15 00:46:18;;;;;;;10.85;4.05;;;;;;;9.89;100.00;102227.78;5014440;28;20243;-78
2022/05/15 00:48:45;;;;;;;12.68;4.55;;;;;;;9.88;100.00;102223.38;5025289;28;20028;-78
2022/05/15 00:51:19;;;;;;;9.88;4.32;;;;;;;9.85;99.90;102218.16;5032897;28;20033;-78
2022/05/15 00:53:48;;;;;;;15.25;4.05;;;;;;;9.84;100.00;102218.16;5032429;28;20130;-78
2022/05/15 00:56:14;;;;;;;15.73;4.20;;;;;;;9.83;100.00;102213.78;5030129;28;20033;-78
2022/05/15 00:58:43;;;;;;;11.57;3.88;;;;;;;9.81;99.13;102216.44;4981619;28;20112;-78
2022/05/15 01:01:09;;;;;;;13.68;4.65;;;;;;;9.80;99.70;102220.00;5029296;28;20040;-78
2022/05/15 01:03:34;;;;;;;11.93;4.50;;;;;;;9.76;99.88;102216.56;5013807;28;20017;-78
2022/05/15 01:06:00;;;;;;;10.93;4.00;;;;;;;9.75;100.00;102222.75;5014223;28;20281;-78
2022/05/15 01:08:27;;;;;;;15.20;4.45;;;;;;;9.73;100.00;102221.91;5011314;28;20091;-79
2022/05/15 01:11:04;;;;;;;10.25;3.88;;;;;;;9.71;100.00;102209.63;5012877;28;20196;-78
2022/05/15 01:13:33;;;;;;;12.25;4.38;;;;;;;9.69;100.00;102214.09;5022654;28;20349;-78
2022/05/15 01:15:59;;;;;;;13.57;4.57;;;;;;;9.68;100.00;102213.19;5013386;28;20176;-78
2022/05/15 01:18:30;;;;;;;10.13;4.15;;;;;;;9.69;100.00;102216.72;5027169;28;20041;-78
2022/05/15 01:20:59;;;;;;;10.90;4.65;;;;;;;9.67;100.00;102219.38;5011567;28;20034;-79
2022/05/15 01:23:25;;;;;;;14.35;4.90;;;;;;;9.64;100.00;102209.75;5011551;28;20037;-78
2022/05/15 01:25:51;;;;;;;12.18;5.00;;;;;;;9.63;100.00;102218.56;5011211;28;20631;-78
2022/05/15 01:28:20;;;;;;;11.80;4.47;;;;;;;9.63;100.00;102217.69;4994713;28;20033;-78
2022/05/15 01:30:49;;;;;;;12.77;4.35;;;;;;;9.61;100.00;102216.88;5012257;28;20038;-78
2022/05/15 01:33:15;;;;;;;13.98;4.80;;;;;;;9.60;100.00;102218.63;4994345;28;21095;-78
2022/05/15 01:35:41;;;;;;;14.23;4.63;;;;;;;9.58;100.00;102215.16;5027257;28;20030;-79
2022/05/15 01:38:07;;;;;;;14.95;4.78;;;;;;;9.57;100.00;102218.69;5013142;28;20084;-78
2022/05/15 01:40:33;;;;;;;10.10;4.47;;;;;;;9.55;100.00;102225.78;5006968;28;20477;-78
2022/05/15 01:43:00;;;;;;;11.38;4.40;;;;;;;9.53;100.00;102227.56;5027087;28;20160;-78
2022/05/15 01:45:26;;;;;;;11.25;4.70;;;;;;;9.53;100.00;102232.88;5012886;28;20045;-79
2022/05/15 01:47:51;;;;;;;9.52;4.55;;;;;;;9.51;100.00;102229.38;5013153;28;20034;-79
2022/05/15 01:50:17;;;;;;;13.23;4.82;;;;;;;9.50;100.00;102225.00;5027670;28;20482;-79
2022/05/15 01:52:43;;;;;;;11.68;4.47;;;;;;;9.49;100.00;102224.13;5012363;28;20666;-79
2022/05/15 01:55:10;;;;;;;13.48;4.68;;;;;;;9.48;100.00;102218.88;5011199;28;20590;-79
2022/05/15 01:57:35;;;;;;;14.98;5.40;;;;;;;9.46;100.00;102218.91;5011078;28;20096;-79
2022/05/15 02:00:01;;;;;;;14.15;4.45;;;;;;;9.44;100.00;102223.34;5014569;28;20543;-79
2022/05/15 02:02:26;;;;;;;11.52;4.13;;;;;;;9.43;100.00;102229.50;5016195;28;20124;-79
2022/05/15 02:04:52;;;;;;;14.75;5.13;;;;;;;9.40;100.00;102226.94;5016723;28;20037;-78
2022/05/15 02:07:18;;;;;;;10.02;4.70;;;;;;;9.38;100.00;102229.59;5020612;28;20448;-78
2022/05/15 02:09:43;;;;;;;11.45;4.93;;;;;;;9.37;100.00;102235.78;5035993;28;20041;-79
2022/05/15 02:12:09;;;;;;;12.57;4.45;;;;;;;9.34;100.00;102230.59;5017751;28;20094;-79
2022/05/15 02:14:35;;;;;;;11.48;5.38;;;;;;;9.32;100.00;102228.88;5035253;28;20526;-79
2022/05/15 02:17:00;;;;;;;9.93;4.88;;;;;;;9.30;100.00;102223.59;5011816;28;20087;-79
2022/05/15 02:19:26;;;;;;;16.95;4.72;;;;;;;9.30;100.00;102233.28;5035211;28;20071;-79
2022/05/15 02:21:51;;;;;;;10.48;4.25;;;;;;;9.27;100.00;102238.63;5033465;28;20033;-79
2022/05/15 02:24:17;;;;;;;11.88;4.80;;;;;;;9.26;100.00;102234.25;5017833;28;20117;-79
2022/05/15 02:26:42;;;;;;;13.88;4.82;;;;;;;9.26;100.00;102229.81;5035409;28;20053;-79
2022/05/15 02:29:08;;;;;;;12.77;5.40;;;;;;;9.25;100.00;102233.38;5016705;28;20028;-79
2022/05/15 02:31:34;;;;;;;13.15;4.53;;;;;;;9.22;100.00;102229.00;5032726;28;20147;-79
2022/05/15 02:34:00;;;;;;;12.82;5.00;;;;;;;9.19;100.00;102229.06;5016790;28;21581;-79
2022/05/15 02:36:27;;;;;;;12.35;4.68;;;;;;;9.19;100.00;102230.84;5036102;28;20033;-79
2022/05/15 02:38:52;;;;;;;14.20;4.72;;;;;;;9.17;100.00;102224.72;5035666;28;20040;-79
2022/05/15 02:41:18;;;;;;;11.98;4.78;;;;;;;9.14;100.00;102223.00;5035826;28;20041;-79
2022/05/15 02:43:43;;;;;;;12.98;5.13;;;;;;;9.15;100.00;102229.16;5035228;28;20047;-79
2022/05/15 02:46:09;;;;;;;11.60;4.80;;;;;;;9.15;100.00;102231.81;5035723;28;20033;-79
2022/05/15 02:51:32;;;;;;;11.50;4.80;;;;;;;9.09;100.00;102219.53;5022729;28;20048;-79
2022/05/15 02:53:57;;;;;;;12.07;4.85;;;;;;;9.08;100.00;102217.81;5034999;28;20043;-79
2022/05/15 02:56:28;;;;;;;12.63;4.57;;;;;;;9.05;100.00;102221.38;5035554;28;20116;-79
2022/05/15 02:58:54;;;;;;;7.60;3.92;;;;;;;9.05;100.00;102215.22;5016603;28;20033;-79
2022/05/15 03:01:20;;;;;;;15.35;4.65;;;;;;;9.04;100.00;102211.72;5035555;28;20112;-78
2022/05/15 03:03:46;;;;;;;17.98;5.18;;;;;;;9.03;100.00;102217.00;5034514;28;20048;-77
2022/05/15 03:06:12;;;;;;;13.85;4.20;;;;;;;9.01;100.00;102214.41;5035167;28;20033;-78
2022/05/15 03:08:43;;;;;;;12.85;4.88;;;;;;;8.98;100.00;102214.44;5034746;28;20049;-78
2022/05/15 03:11:09;;;;;;;12.55;4.75;;;;;;;8.95;100.00;102210.09;5034207;28;20150;-78
2022/05/15 03:13:35;;;;;;;10.57;3.90;;;;;;;8.95;100.00;102218.00;5034281;28;20570;-78
2022/05/15 03:16:02;;;;;;;12.00;3.97;;;;;;;8.93;100.00;102211.88;5034921;28;20033;-78
2022/05/15 03:18:28;;;;;;;16.70;4.30;;;;;;;8.93;100.00;102211.03;5035019;28;20040;-78
2022/05/15 03:20:53;;;;;;;11.98;3.92;;;;;;;8.93;100.00;102213.69;5034358;28;20035;-79
2022/05/15 03:23:19;;;;;;;11.32;3.67;;;;;;;8.93;100.00;102211.03;5034634;28;20082;-78
2022/05/15 03:25:44;;;;;;;8.73;3.92;;;;;;;8.95;100.00;102215.38;5033947;28;20041;-78
2022/05/15 03:28:10;;;;;;;13.65;4.10;;;;;;;8.97;100.00;102212.72;5016349;28;20028;-78
2022/05/15 03:30:37;;;;;;;9.95;4.03;;;;;;;8.96;100.00;102217.13;5036081;28;20104;-78
2022/05/15 03:33:03;;;;;;;13.48;4.43;;;;;;;8.95;100.00;102222.44;5034849;28;20213;-79
2022/05/15 03:35:28;;;;;;;11.23;3.83;;;;;;;8.93;100.00;102213.69;5035513;28;20029;-78
2022/05/15 03:37:54;;;;;;;12.38;3.92;;;;;;;8.89;100.00;102215.47;5034566;28;20487;-78
2022/05/15 03:40:19;;;;;;;11.80;3.92;;;;;;;8.87;100.00;102224.34;5035157;28;20143;-78
2022/05/15 03:42:45;;;;;;;9.07;4.18;;;;;;;8.85;100.00;102223.47;5034540;28;20094;-79
2022/05/15 03:45:11;;;;;;;14.20;4.57;;;;;;;8.80;100.00;102216.50;5010576;28;20025;-79
2022/05/15 03:47:47;;;;;;;7.63;3.65;;;;;;;8.77;100.00;102215.69;5021878;28;20498;-78
2022/05/15 03:50:13;;;;;;;15.82;4.00;;;;;;;8.72;100.00;102221.03;5027301;28;20049;-78
2022/05/15 03:52:38;;;;;;;12.88;4.28;;;;;;;8.70;100.00;102217.53;5009042;28;20387;-78
2022/05/15 03:55:05;;;;;;;15.82;4.57;;;;;;;8.69;100.00;102215.81;5034574;28;20041;-78
2022/05/15 03:57:30;;;;;;;7.07;3.65;;;;;;;8.67;100.00;102217.59;5037873;28;20525;-78
2022/05/15 03:59:56;;;;;;;11.02;3.97;;;;;;;8.66;100.00;102215.88;5035577;28;20189;-78
2022/05/15 04:02:22;;;;;;;11.52;4.28;;;;;;;8.67;100.00;102220.25;5037537;28;20037;-78
2022/05/15 04:04:47;;;;;;;13.68;4.65;;;;;;;8.65;100.00;102214.09;5036399;28;20037;-78
2022/05/15 04:07:13;;;;;;;13.02;4.90;;;;;;;8.62;100.00;102206.22;5036771;28;20049;-78
2022/05/15 04:09:40;;;;;;;8.98;4.07;;;;;;;8.59;100.00;102206.25;5036875;28;20044;-78
2022/05/15 04:12:08;;;;;;;8.93;4.13;;;;;;;8.53;100.00;102202.84;5033576;28;20411;-78
2022/05/15 04:14:34;;;;;;;12.10;4.50;;;;;;;8.51;100.00;102198.44;5037679;28;20068;-78
2022/05/15 04:16:59;;;;;;;11.40;4.03;;;;;;;8.51;100.00;102203.72;5036231;28;20116;-77
2022/05/15 04:19:25;;;;;;;10.98;4.35;;;;;;;8.50;100.00;102202.84;5035884;28;20060;-78
2022/05/15 04:21:51;;;;;;;6.70;3.90;;;;;;;8.52;100.00;102201.09;5035778;28;20060;-78
2022/05/15 04:24:18;;;;;;;15.05;4.40;;;;;;;8.55;100.00;102210.72;5033659;28;20040;-78
2022/05/15 04:26:46;;;;;;;11.63;4.47;;;;;;;8.59;100.00;102207.16;5030930;28;20156;-77
2022/05/15 04:29:12;;;;;;;12.43;4.10;;;;;;;8.65;100.00;102206.16;5033411;28;20043;-78
2022/05/15 04:31:38;;;;;;;16.42;4.90;;;;;;;8.69;100.00;102207.88;5010092;28;20032;-79
2022/05/15 04:34:04;;;;;;;11.75;4.57;;;;;;;8.75;100.00;102206.91;5033459;28;20037;-78
2022/05/15 04:36:30;;;;;;;11.98;3.83;;;;;;;8.82;100.00;102208.53;5014778;28;20021;-77
2022/05/15 04:38:56;;;;;;;10.23;3.45;;;;;;;8.85;100.00;102200.59;5033060;28;21499;-78
2022/05/15 04:41:22;;;;;;;14.93;4.70;;;;;;;8.90;100.00;102201.41;5014413;28;20033;-78
2022/05/15 04:43:48;;;;;;;13.13;4.13;;;;;;;8.94;100.00;102207.50;5033103;28;20502;-78
2022/05/15 04:46:14;;;;;;;13.77;4.38;;;;;;;8.96;100.00;102214.50;5014420;28;20033;-78
2022/05/15 04:48:40;;;;;;;11.48;4.43;;;;;;;8.99;100.00;102210.06;5032805;28;20071;-78
2022/05/15 04:51:05;;;;;;;17.63;4.43;;;;;;;9.04;100.00;102214.34;5014440;28;20033;-78
2022/05/15 04:53:31;;;;;;;13.90;4.60;;;;;;;9.08;100.00;102221.34;4998035;28;20036;-77
2022/05/15 04:55:58;;;;;;;14.65;4.45;;;;;;;9.14;100.00;102215.06;5025502;28;20725;-78
2022/05/15 04:58:24;;;;;;;12.50;4.40;;;;;;;9.21;100.00;102221.97;5016209;28;20029;-78
2022/05/15 05:00:50;;;;;;;14.75;3.88;;;;;;;9.27;100.00;102217.50;5014040;28;20029;-78
2022/05/15 05:03:15;;;;;;;7.82;4.07;;;;;;;9.32;100.00;102224.44;5014486;28;20468;-77
2022/05/15 05:05:41;;;;;;;13.30;4.25;;;;;;;9.36;100.00;102220.84;5014269;28;20021;-78
2022/05/15 05:08:08;;;;;;;10.18;4.85;;;;;;;9.43;100.00;102215.44;5010842;28;20475;-78
2022/05/15 05:10:33;;;;;;;15.30;3.85;;;;;;;9.48;100.00;102218.88;5011031;28;20042;-78
2022/05/15 05:12:59;;;;;;;14.52;3.80;;;;;;;9.55;100.00;102217.88;5011901;28;20039;-78
2022/05/15 05:15:24;;;;;;;14.75;4.28;;;;;;;9.63;100.00;102215.94;5011318;28;20053;-79
2022/05/15 05:17:50;;;;;;;7.47;3.45;;;;;;;9.71;100.00;102209.63;5028884;28;20790;-79
2022/05/15 05:20:16;;;;;;;7.30;3.92;;;;;;;9.81;100.00;102213.81;5011772;28;20595;-78
2022/05/15 05:22:41;;;;;;;11.93;4.30;;;;;;;9.90;100.00;102207.47;5011210;28;20030;-78
2022/05/15 05:25:08;;;;;;;8.65;3.83;;;;;;;9.97;100.00;102211.72;4994740;28;20109;-78
2022/05/15 05:27:34;;;;;;;12.32;4.15;;;;;;;10.07;100.00;102214.19;5011206;28;20447;-78
2022/05/15 05:29:59;;;;;;;9.40;4.40;;;;;;;10.22;100.00;102211.19;5013009;28;20040;-78
2022/05/15 05:32:25;;;;;;;11.45;4.53;;;;;;;10.42;100.00;102224.00;5012809;28;20045;-77
2022/05/15 05:34:50;;;;;;;6.40;3.92;;;;;;;10.62;100.00;102214.72;5014527;28;20480;-78
2022/05/15 05:37:17;;;;;;;10.30;3.85;;;;;;;10.83;100.00;102220.41;5016519;28;20037;-78
2022/05/15 05:39:44;;;;;;;14.55;4.32;;;;;;;11.00;100.00;102218.22;5031637;28;20116;-77
2022/05/15 05:42:10;;;;;;;11.32;4.60;;;;;;;11.13;100.00;102221.44;5031239;28;21838;-77
2022/05/15 05:44:35;;;;;;;11.85;4.05;;;;;;;11.27;100.00;102223.72;4998582;28;20040;-77
2022/05/15 05:47:01;;;;;;;14.55;3.85;;;;;;;11.44;100.00;102229.50;5015833;28;20045;-78
2022/05/15 05:49:26;;;;;;;13.48;3.90;;;;;;;11.58;100.00;102226.44;5016481;28;20029;-77
2022/05/15 05:51:52;;;;;;;8.60;3.63;;;;;;;11.70;100.00;102231.41;5014465;28;20044;-78
2022/05/15 05:54:17;;;;;;;6.40;3.13;;;;;;;11.84;100.00;102231.03;5014110;28;20831;-79
2022/05/15 05:56:43;;;;;;;10.50;3.67;;;;;;;12.01;100.00;102225.25;5016091;28;20064;-78
2022/05/15 05:59:08;;;;;;;9.05;4.32;;;;;;;12.21;100.00;102223.81;5014286;28;20037;-77
2022/05/15 06:01:34;;;;;;;13.60;4.32;;;;;;;12.37;100.00;102232.19;5016117;28;20068;-78
2022/05/15 06:06:44;;;;;;;10.02;3.58;;;;;;;12.79;100.00;102244.13;5015714;28;20033;-78
2022/05/15 06:09:09;;;;;;;11.50;3.90;;;;;;;12.96;100.00;102242.72;5013767;28;20506;-77
2022/05/15 06:11:35;;;;;;;11.07;3.53;;;;;;;13.15;100.00;102246.50;5014227;28;20079;-78
2022/05/15 06:14:00;;;;;;;11.80;4.05;;;;;;;13.36;99.27;102241.38;5015418;28;20556;-78
2022/05/15 06:16:26;;;;;;;13.70;3.78;;;;;;;13.53;98.52;102250.56;5014267;28;20029;-78
2022/05/15 06:18:51;;;;;;;11.48;3.63;;;;;;;13.61;97.44;102250.31;5015461;28;20179;-77
2022/05/15 06:21:17;;;;;;;10.93;3.72;;;;;;;13.70;97.11;102253.50;5015689;28;20105;-78
2022/05/15 06:23:42;;;;;;;10.23;3.22;;;;;;;13.84;96.66;102250.31;5015581;28;20754;-77
2022/05/15 06:26:08;;;;;;;10.18;3.40;;;;;;;13.98;96.33;102260.47;5015529;28;20048;-77
2022/05/15 06:28:34;;;;;;;14.20;3.75;;;;;;;14.20;96.13;102256.97;5015118;28;20779;-78
2022/05/15 06:31:01;;;;;;;10.00;3.80;;;;;;;14.42;96.13;102255.28;5017375;28;20422;-78
2022/05/15 06:33:27;;;;;;;9.65;3.67;;;;;;;14.57;94.59;102253.78;5030068;28;20124;-78
2022/05/15 06:35:52;;;;;;;9.93;3.05;;;;;;;14.70;94.47;102254.19;5030142;28;20031;-78
2022/05/15 06:38:18;;;;;;;9.23;2.63;;;;;;;14.86;93.60;102249.13;5013799;28;20029;-78
2022/05/15 06:40:44;;;;;;;11.50;3.08;;;;;;;14.97;92.35;102251.34;5015778;28;20060;-78
2022/05/15 06:43:10;;;;;;;9.10;3.58;;;;;;;15.18;93.14;102260.22;5013174;28;20041;-78
2022/05/15 06:45:36;;;;;;;13.27;3.05;;;;;;;15.28;92.00;102250.91;5015732;28;20034;-78
2022/05/15 06:48:02;;;;;;;14.18;2.97;;;;;;;15.36;90.75;102247.03;5030881;28;20029;-78
2022/05/15 06:50:28;;;;;;;7.63;2.80;;;;;;;15.38;90.15;102245.16;5014879;28;20087;-78
2022/05/15 06:52:53;;;;;;;8.10;2.40;;;;;;;15.56;90.26;102236.34;5015578;28;20039;-79
2022/05/15 06:55:23;;;;;;;9.68;3.10;;;;;;;15.73;88.79;102250.75;5016627;28;20041;-78
2022/05/15 06:57:50;;;;;;;7.78;2.33;;;;;;;15.86;88.27;102243.06;5016938;28;20039;-78
2022/05/15 07:00:27;;;;;;;9.75;2.75;;;;;;;15.99;82.49;102238.03;4996474;28;20044;-78
2022/05/15 07:02:53;;;;;;;7.78;2.35;;;;;;;16.04;87.00;102237.81;5030780;28;20029;-78
2022/05/15 07:05:30;;;;;;;5.93;2.10;;;;;;;16.16;84.64;102237.25;5016880;28;20040;-79
2022/05/15 07:07:56;;;;;;;8.63;2.58;;;;;;;16.24;85.46;102226.22;5001707;28;20044;-78
2022/05/15 07:10:22;;;;;;;9.30;2.83;;;;;;;16.33;84.69;102230.25;5013217;28;20045;-78
2022/05/15 07:12:48;;;;;;;6.55;2.47;;;;;;;16.33;83.40;102220.41;5017837;28;20033;-79
2022/05/15 07:15:14;;;;;;;10.35;2.83;;;;;;;16.39;83.35;102220.13;5018316;28;20380;-79
2022/05/15 07:17:39;;;;;;;10.20;3.03;;;;;;;16.51;83.26;102212.47;5018381;28;21723;-79
2022/05/15 07:20:05;;;;;;;7.82;2.67;;;;;;;16.62;82.31;102206.56;5035883;28;20167;-78
2022/05/15 07:22:33;;;;;;;9.05;2.78;;;;;;;16.83;83.05;102212.63;5001355;28;20064;-78
2022/05/15 07:24:58;;;;;;;6.10;2.13;;;;;;;16.93;81.62;102211.25;5012116;28;20334;-78
2022/05/15 07:27:24;;;;;;;9.63;2.78;;;;;;;17.04;81.06;102213.41;5017699;28;20430;-78
2022/05/15 07:29:49;;;;;;;12.93;2.55;;;;;;;17.13;80.51;102217.41;5001781;28;20579;-79
2022/05/15 07:32:15;;;;;;;10.23;2.45;;;;;;;17.25;80.30;102215.91;5017842;28;20159;-78
2022/05/15 07:34:41;;;;;;;10.20;2.35;;;;;;;17.33;79.98;102207.50;5017030;28;20033;-78
2022/05/15 07:37:07;;;;;;;6.65;2.88;;;;;;;17.40;79.98;102219.59;5034028;28;20036;-79
2022/05/15 07:39:33;;;;;;;8.45;2.78;;;;;;;17.49;79.23;102213.75;5041127;28;20040;-79
2022/05/15 07:41:58;;;;;;;8.20;2.65;;;;;;;17.48;78.08;102212.03;5036033;28;20033;-78
2022/05/15 07:44:24;;;;;;;7.85;2.55;;;;;;;17.58;77.99;102207.03;5025847;28;20044;-78
2022/05/15 07:46:49;;;;;;;9.30;2.55;;;;;;;17.68;77.58;102204.72;5017562;28;20044;-79
2022/05/15 07:49:15;;;;;;;8.18;3.35;;;;;;;17.75;77.31;102200.78;5035670;28;20037;-79
2022/05/15 07:51:44;;;;;;;6.93;2.40;;;;;;;17.76;76.85;102207.84;5037895;28;20250;-77
2022/05/15 07:54:14;;;;;;;4.13;1.90;;;;;;;17.88;76.41;102205.47;5033204;28;20583;-78
2022/05/15 07:56:41;;;;;;;8.55;2.65;;;;;;;18.04;76.07;102209.00;4996752;28;20110;-78
2022/05/15 07:59:07;;;;;;;7.82;2.58;;;;;;;18.11;75.42;102209.56;5016900;28;20032;-77
2022/05/15 08:01:32;;;;;;;8.43;2.58;;;;;;;18.23;74.73;102207.13;5035523;28;20041;-78
2022/05/15 08:03:57;;;;;;;9.77;2.25;;;;;;;18.40;74.63;102215.09;5035674;28;20151;-79
2022/05/15 08:09:08;;;;;;;8.30;2.55;;;;;;;18.64;73.47;102209.28;5018756;28;20167;-78
2022/05/15 08:11:36;;;;;;;9.20;2.20;;;;;;;18.84;73.17;102212.59;5035621;28;20136;-78
2022/05/15 08:14:05;;;;;;;5.82;2.42;;;;;;;18.94;71.20;102204.84;5017016;28;20041;-78
2022/05/15 08:16:35;;;;;;;5.28;2.33;;;;;;;19.07;71.04;102213.94;5003547;28;20071;-79
2022/05/15 08:24:30;;;;;;;8.00;1.90;;;;;;;19.49;70.25;102210.53;5035037;28;20092;-79
2022/05/15 08:26:56;;;;;;;4.75;2.08;;;;;;;19.48;68.85;102211.50;5016614;28;21058;-77
2022/05/15 08:29:22;;;;;;;7.43;2.00;;;;;;;19.42;68.09;102202.00;5014102;28;20109;-78
2022/05/15 08:31:48;;;;;;;7.38;2.00;;;;;;;19.35;67.31;102206.03;5034690;28;20037;-79
2022/05/15 08:34:13;;;;;;;7.45;2.55;;;;;;;19.22;67.79;102204.09;5034392;28;20032;-79
2022/05/15 08:36:41;;;;;;;7.78;2.42;;;;;;;19.22;67.43;102203.22;5027670;28;20029;-79
2022/05/15 08:39:08;;;;;;;6.75;2.10;;;;;;;19.09;67.91;102209.34;5015886;28;20041;-80
2022/05/15 08:41:51;;;;;;;8.40;2.58;;;;;;;19.26;66.56;102204.78;5035907;28;20143;-78
2022/05/15 08:44:22;;;;;;;7.30;2.42;;;;;;;19.53;67.33;102206.72;5035234;28;20556;-79
2022/05/15 08:46:48;;;;;;;7.23;2.40;;;;;;;19.71;67.72;102204.69;5032553;28;20124;-79
2022/05/15 08:49:25;;;;;;;3.10;1.90;;;;;;;19.71;66.83;102207.38;5034375;28;20388;-79
2022/05/15 08:52:13;;;;;;;6.25;2.00;;;;;;;19.73;63.43;102201.91;5035119;28;20032;-79
2022/05/15 08:55:02;;;;;;;8.65;2.10;;;;;;;19.47;63.08;102197.22;5034908;28;20040;-80
2022/05/15 08:57:39;;;;;;;3.80;1.80;;;;;;;19.41;63.02;102198.44;5015745;28;20029;-78
2022/05/15 09:00:10;;;;;;;5.15;2.15;;;;;;;19.52;66.24;102202.31;5027643;28;20037;-80
2022/05/15 09:02:40;;;;;;;3.58;1.92;;;;;;;19.57;65.07;102200.22;5033569;28;20403;-80
2022/05/15 09:05:06;;;;;;;5.35;1.75;;;;;;;19.67;66.10;102201.34;5024543;28;20072;-80
2022/05/15 09:07:38;;;;;;;5.88;1.65;;;;;;;19.90;66.45;102200.84;5025508;28;20041;-79
2022/05/15 09:10:19;;;;;;;6.13;2.05;;;;;;;20.03;63.17;102195.56;5017810;28;20118;-78
2022/05/15 09:12:50;;;;;;;7.63;2.35;;;;;;;20.17;65.36;102203.63;5021162;28;20079;-79
2022/05/15 09:15:22;;;;;;;6.00;2.25;;;;;;;20.24;62.36;102189.75;5020641;28;20098;-79
2022/05/15 09:18:04;;;;;;;11.50;2.00;;;;;;;20.38;61.96;102205.00;5037869;28;20752;-79
2022/05/15 09:20:40;;;;;;;5.78;1.98;;;;;;;20.55;63.35;102206.56;5019953;28;20541;-80
2022/05/15 09:23:14;;;;;;;5.95;1.98;;;;;;;20.45;63.74;102200.94;5003651;28;20119;-81
2022/05/15 09:25:40;;;;;;;7.53;1.83;;;;;;;20.52;62.02;102202.25;5020050;28;20052;-80
2022/05/15 09:28:12;;;;;;;6.18;1.75;;;;;;;20.64;60.32;102197.88;5019255;28;20036;-80
2022/05/15 09:30:47;;;;;;;8.45;2.22;;;;;;;20.74;59.69;102201.69;5036566;28;20652;-79
2022/05/15 09:33:41;;;;;;;5.85;2.10;;;;;;;20.60;58.56;102199.06;5040825;28;20044;-80
2022/05/15 09:36:21;;;;;;;6.93;1.88;;;;;;;20.55;60.16;102201.19;5019590;28;20085;-80
2022/05/15 09:38:48;;;;;;;6.72;2.05;;;;;;;20.57;60.68;102188.50;5040361;28;20224;-81
2022/05/15 09:44:07;;;;;;;6.18;1.60;;;;;;;20.69;59.47;102189.50;5037262;28;20032;-80
2022/05/15 09:46:33;;;;;;;4.43;1.85;;;;;;;20.73;59.38;102180.25;5011636;28;20029;-79
2022/05/15 09:49:13;;;;;;;6.10;2.08;;;;;;;20.81;57.36;102174.34;5019452;28;20032;-81
2022/05/15 09:51:52;;;;;;;7.63;2.15;;;;;;;20.83;56.47;102178.66;5019032;28;20032;-81
2022/05/15 09:54:33;;;;;;;4.25;1.90;;;;;;;20.74;55.87;102174.78;5019364;28;20070;-80
2022/05/15 09:57:08;;;;;;;6.10;2.00;;;;;;;20.67;56.34;102168.09;5036991;28;20037;-81
2022/05/15 09:59:34;;;;;;;5.15;1.90;;;;;;;20.76;57.24;102164.75;5036878;28;20025;-80
2022/05/15 10:02:00;;;;;;;5.43;1.92;;;;;;;20.79;55.77;102160.13;5013862;28;20041;-80
2022/05/15 10:04:39;;;;;;;6.78;1.80;;;;;;;20.61;56.39;102163.97;5034262;28;20123;-80
2022/05/15 10:07:07;;;;;;;7.65;2.63;;;;;;;20.36;56.50;102156.69;5019260;28;20155;-81
2022/05/15 10:09:35;;;;;;;6.60;2.15;;;;;;;20.39;56.27;102147.56;5019085;28;20033;-80
2022/05/15 10:12:23;;;;;;;6.05;2.17;;;;;;;20.43;55.15;102149.09;5019175;28;20017;-82
2022/05/15 10:14:54;;;;;;;5.80;1.90;;;;;;;20.44;56.35;102145.44;5018845;28;20071;-81
2022/05/15 10:17:22;;;;;;;6.57;2.17;;;;;;;20.58;56.80;102153.41;5037593;28;20507;-81
2022/05/15 10:20:18;;;;;;;4.85;1.92;;;;;;;20.65;54.90;102164.66;4996430;28;20325;-81
2022/05/15 10:22:45;;;;;;;5.22;2.25;;;;;;;20.61;55.27;102155.88;5018040;28;20041;-80
2022/05/15 10:25:19;;;;;;;7.70;2.13;;;;;;;20.61;54.49;102157.75;5002007;28;21026;-80
2022/05/15 10:27:58;;;;;;;5.20;2.05;;;;;;;20.58;54.78;102155.25;5019677;28;20229;-80
2022/05/15 10:30:37;;;;;;;4.05;1.88;;;;;;;20.68;55.54;102155.47;5002766;28;20037;-80
2022/05/15 10:33:14;;;;;;;7.60;2.20;;;;;;;20.79;54.31;102160.13;5018603;28;20576;-80
2022/05/15 10:36:05;;;;;;;4.75;2.22;;;;;;;20.73;53.27;102147.97;5003959;28;20126;-80
2022/05/15 10:38:40;;;;;;;6.07;2.47;;;;;;;20.70;53.64;102143.66;5018913;28;20033;-81
2022/05/15 10:41:16;;;;;;;9.40;2.25;;;;;;;20.67;55.25;102143.88;5037999;28;20045;-81
2022/05/15 10:44:01;;;;;;;6.20;2.28;;;;;;;20.62;54.19;102135.25;5016273;28;20055;-79
2022/05/15 10:46:48;;;;;;;6.63;1.98;;;;;;;20.50;54.14;102136.94;5018474;28;20033;-79
2022/05/15 10:49:26;;;;;;;5.07;1.77;;;;;;;20.46;54.27;102133.59;5002463;28;20037;-79
2022/05/15 10:52:20;;;;;;;6.18;2.03;;;;;;;20.50;55.22;102131.56;5036605;28;20098;-79
2022/05/15 10:58:20;;;;;;;5.95;2.05;;;;;;;20.47;53.21;102129.94;5037681;28;20548;-79
2022/05/15 11:01:01;;;;;;;5.35;1.80;;;;;;;20.45;54.61;102120.25;5036953;28;20051;-79
2022/05/15 11:04:01;;;;;;;10.40;2.42;;;;;;;20.35;52.96;102123.56;5021080;28;20060;-80
2022/05/15 11:06:33;;;;;;;5.75;2.00;;;;;;;20.37;54.00;102114.53;5035900;28;20064;-80
2022/05/15 11:09:24;;;;;;;9.55;2.38;;;;;;;20.44;53.57;102115.84;5036695;28;20087;-79
2022/05/15 11:12:13;;;;;;;4.53;1.88;;;;;;;20.61;53.36;102109.31;5039792;28;20052;-80
2022/05/15 11:15:31;;;;;;;5.53;2.35;;;;;;;20.80;52.81;102106.22;5019416;28;20090;-80
2022/05/15 11:18:33;;;;;;;7.18;2.03;;;;;;;20.83;52.83;102107.81;4977028;28;20128;-79
2022/05/15 11:21:02;;;;;;;4.88;2.00;;;;;;;20.66;53.56;102096.41;5017778;28;20560;-80
2022/05/15 11:23:33;;;;;;;6.72;2.03;;;;;;;20.63;53.89;102092.09;5017854;28;20037;-80
2022/05/15 11:26:07;;;;;;;5.77;1.93;;;;;;;20.69;51.98;102082.75;5035689;28;20040;-81
2022/05/15 11:29:06;;;;;;;3.55;1.63;;;;;;;20.61;52.31;102085.94;5033291;28;21556;-77
2022/05/15 11:31:36;;;;;;;6.50;2.00;;;;;;;20.68;53.20;102081.03;5008563;28;20404;-78
2022/05/15 11:34:05;;;;;;;7.50;2.15;;;;;;;20.68;52.76;102072.94;5017541;28;20036;-78
2022/05/15 11:36:35;;;;;;;7.85;2.00;;;;;;;20.59;52.44;102058.31;5022337;28;20036;-78
2022/05/15 11:39:00;;;;;;;6.30;2.00;;;;;;;20.61;52.74;102061.75;5012352;28;20459;-78
2022/05/15 11:42:08;;;;;;;6.10;2.13;;;;;;;20.61;51.58;102058.22;5036246;28;20037;-77
2022/05/15 11:44:42;;;;;;;7.05;2.42;;;;;;;20.69;52.95;102066.59;5036411;28;20533;-78
2022/05/15 11:47:14;;;;;;;5.20;1.95;;;;;;;20.85;53.75;102069.13;5017500;28;20057;-79
2022/05/15 11:49:41;;;;;;;4.78;1.90;;;;;;;20.98;53.86;102058.34;5037559;28;20094;-78
2022/05/15 11:52:06;;;;;;;9.27;2.10;;;;;;;21.07;53.26;102055.97;5037069;28;20032;-77